sensor_id;sensor_type;location;lat;lon;timestamp;temperature;humidity
11284;DHT22;5698;47.332;11.180;2023-12-20T00:01:57;2.30;99.90
11284;DHT22;5698;47.332;11.180;2023-12-20T00:04:24;2.30;99.90
11284;DHT22;5698;47.332;11.180;2023-12-20T00:06:51;2.30;99.90
11284;DHT22;5698;47.332;11.180;2023-12-20T00:09:18;2.20;99.90
11284;DHT22;5698;47.332;11.180;2023-12-20T00:11:45;2.20;99.90
11284;DHT22;5698;47.332;11.180;2023-12-20T00:14:13;2.20;99.90
11284;DHT22;5698;47.332;11.180;2023-12-20T00:16:40;2.20;99.90
11284;DHT22;5698;47.332;11.180;2023-12-20T00:19:07;2.20;99.90
11284;DHT22;5698;47.332;11.180;2023-12-20T00:21:34;2.10;99.90
11284;DHT22;5698;47.332;11.180;2023-12-20T00:24:01;2.10;99.90
11284;DHT22;5698;47.332;11.180;2023-12-20T00:26:28;2.10;99.90
11284;DHT22;5698;47.332;11.180;2023-12-20T00:28:55;2.10;99.90
11284;DHT22;5698;47.332;11.180;2023-12-20T00:31:23;2.10;99.90
11284;DHT22;5698;47.332;11.180;2023-12-20T00:33:50;2.10;99.90
11284;DHT22;5698;47.332;11.180;2023-12-20T00:36:17;2.00;99.90
11284;DHT22;5698;47.332;11.180;2023-12-20T00:38:45;2.00;99.90
11284;DHT22;5698;47.332;11.180;2023-12-20T00:41:12;2.00;99.90
11284;DHT22;5698;47.332;11.180;2023-12-20T00:43:39;2.00;99.90
11284;DHT22;5698;47.332;11.180;2023-12-20T00:46:06;2.00;99.90
11284;DHT22;5698;47.332;11.180;2023-12-20T00:48:34;2.00;99.90
11284;DHT22;5698;47.332;11.180;2023-12-20T00:51:01;1.90;99.90
11284;DHT22;5698;47.332;11.180;2023-12-20T00:53:28;1.90;99.90
11284;DHT22;5698;47.332;11.180;2023-12-20T00:55:55;1.90;99.90
11284;DHT22;5698;47.332;11.180;2023-12-20T00:58:24;1.80;99.90
11284;DHT22;5698;47.332;11.180;2023-12-20T01:00:52;1.80;99.90
11284;DHT22;5698;47.332;11.180;2023-12-20T01:03:19;1.80;99.90
11284;DHT22;5698;47.332;11.180;2023-12-20T01:05:47;1.80;99.90
11284;DHT22;5698;47.332;11.180;2023-12-20T01:08:14;1.80;99.90
11284;DHT22;5698;47.332;11.180;2023-12-20T01:10:41;1.70;99.90
11284;DHT22;5698;47.332;11.180;2023-12-20T01:13:08;1.70;99.90
11284;DHT22;5698;47.332;11.180;2023-12-20T01:15:35;1.70;99.90
11284;DHT22;5698;47.332;11.180;2023-12-20T01:18:02;1.70;99.90
11284;DHT22;5698;47.332;11.180;2023-12-20T01:20:29;1.70;99.90
11284;DHT22;5698;47.332;11.180;2023-12-20T01:22:58;1.70;99.90
11284;DHT22;5698;47.332;11.180;2023-12-20T01:25:25;1.70;99.90
11284;DHT22;5698;47.332;11.180;2023-12-20T01:27:52;1.70;99.90
11284;DHT22;5698;47.332;11.180;2023-12-20T01:30:19;1.70;99.90
11284;DHT22;5698;47.332;11.180;2023-12-20T01:32:45;1.70;99.90
11284;DHT22;5698;47.332;11.180;2023-12-20T01:35:12;1.70;99.90
11284;DHT22;5698;47.332;11.180;2023-12-20T01:37:40;1.70;99.90
11284;DHT22;5698;47.332;11.180;2023-12-20T01:40:09;1.70;99.90
11284;DHT22;5698;47.332;11.180;2023-12-20T01:42:36;1.70;99.90
11284;DHT22;5698;47.332;11.180;2023-12-20T01:45:04;1.70;99.90
11284;DHT22;5698;47.332;11.180;2023-12-20T01:47:31;1.70;99.90
11284;DHT22;5698;47.332;11.180;2023-12-20T01:49:58;1.70;99.90
11284;DHT22;5698;47.332;11.180;2023-12-20T01:52:26;1.70;99.90
11284;DHT22;5698;47.332;11.180;2023-12-20T01:54:54;1.70;99.90
11284;DHT22;5698;47.332;11.180;2023-12-20T01:57:28;1.70;99.90
11284;DHT22;5698;47.332;11.180;2023-12-20T01:59:55;1.70;99.90
11284;DHT22;5698;47.332;11.180;2023-12-20T02:02:23;1.70;99.90
11284;DHT22;5698;47.332;11.180;2023-12-20T02:04:50;1.70;99.90
11284;DHT22;5698;47.332;11.180;2023-12-20T02:07:18;1.70;99.90
11284;DHT22;5698;47.332;11.180;2023-12-20T02:09:45;1.60;99.90
11284;DHT22;5698;47.332;11.180;2023-12-20T02:12:13;1.70;99.90
11284;DHT22;5698;47.332;11.180;2023-12-20T02:14:41;1.70;99.90
11284;DHT22;5698;47.332;11.180;2023-12-20T02:17:08;1.70;99.90
11284;DHT22;5698;47.332;11.180;2023-12-20T02:19:35;1.70;99.90
11284;DHT22;5698;47.332;11.180;2023-12-20T02:22:08;1.70;99.90
11284;DHT22;5698;47.332;11.180;2023-12-20T02:24:35;1.80;99.90
11284;DHT22;5698;47.332;11.180;2023-12-20T02:27:02;1.80;99.90
11284;DHT22;5698;47.332;11.180;2023-12-20T02:29:29;1.80;99.90
11284;DHT22;5698;47.332;11.180;2023-12-20T02:31:57;1.80;99.90
11284;DHT22;5698;47.332;11.180;2023-12-20T02:34:24;1.80;99.90
11284;DHT22;5698;47.332;11.180;2023-12-20T02:36:51;1.80;99.90
11284;DHT22;5698;47.332;11.180;2023-12-20T02:39:20;1.90;99.90
11284;DHT22;5698;47.332;11.180;2023-12-20T02:41:48;1.90;99.90
11284;DHT22;5698;47.332;11.180;2023-12-20T02:44:15;1.90;99.90
11284;DHT22;5698;47.332;11.180;2023-12-20T02:46:42;2.00;99.90
11284;DHT22;5698;47.332;11.180;2023-12-20T02:49:09;2.00;99.90
11284;DHT22;5698;47.332;11.180;2023-12-20T02:51:36;2.00;99.90
11284;DHT22;5698;47.332;11.180;2023-12-20T02:54:04;2.00;99.90
11284;DHT22;5698;47.332;11.180;2023-12-20T02:56:32;2.00;99.90
11284;DHT22;5698;47.332;11.180;2023-12-20T02:58:59;2.00;99.90
11284;DHT22;5698;47.332;11.180;2023-12-20T03:01:26;2.00;99.90
11284;DHT22;5698;47.332;11.180;2023-12-20T03:03:53;2.00;99.90
11284;DHT22;5698;47.332;11.180;2023-12-20T03:06:20;2.00;99.90
11284;DHT22;5698;47.332;11.180;2023-12-20T03:08:47;2.00;99.90
11284;DHT22;5698;47.332;11.180;2023-12-20T03:11:14;2.00;99.90
11284;DHT22;5698;47.332;11.180;2023-12-20T03:13:43;2.00;99.90
11284;DHT22;5698;47.332;11.180;2023-12-20T03:16:10;2.00;99.90
11284;DHT22;5698;47.332;11.180;2023-12-20T03:18:37;1.90;99.90
11284;DHT22;5698;47.332;11.180;2023-12-20T03:21:04;2.00;99.90
11284;DHT22;5698;47.332;11.180;2023-12-20T03:23:32;1.90;99.90
11284;DHT22;5698;47.332;11.180;2023-12-20T03:25:59;1.90;99.90
11284;DHT22;5698;47.332;11.180;2023-12-20T03:28:27;1.90;99.90
11284;DHT22;5698;47.332;11.180;2023-12-20T03:30:55;1.90;99.90
11284;DHT22;5698;47.332;11.180;2023-12-20T03:33:22;1.80;99.90
11284;DHT22;5698;47.332;11.180;2023-12-20T03:35:49;1.80;99.90
11284;DHT22;5698;47.332;11.180;2023-12-20T03:38:16;1.80;99.90
11284;DHT22;5698;47.332;11.180;2023-12-20T03:40:43;1.70;99.90
11284;DHT22;5698;47.332;11.180;2023-12-20T03:43:10;1.70;99.90
11284;DHT22;5698;47.332;11.180;2023-12-20T03:45:37;1.70;99.90
11284;DHT22;5698;47.332;11.180;2023-12-20T03:48:06;1.60;99.90
11284;DHT22;5698;47.332;11.180;2023-12-20T03:50:34;1.60;99.90
11284;DHT22;5698;47.332;11.180;2023-12-20T03:53:01;1.50;99.90
11284;DHT22;5698;47.332;11.180;2023-12-20T03:55:29;1.50;99.90
11284;DHT22;5698;47.332;11.180;2023-12-20T03:57:56;1.50;99.90
11284;DHT22;5698;47.332;11.180;2023-12-20T04:00:23;1.50;99.90
11284;DHT22;5698;47.332;11.180;2023-12-20T04:02:50;1.50;99.90
11284;DHT22;5698;47.332;11.180;2023-12-20T04:05:18;1.50;99.90
11284;DHT22;5698;47.332;11.180;2023-12-20T04:07:45;1.50;99.90
11284;DHT22;5698;47.332;11.180;2023-12-20T04:10:12;1.50;99.90
11284;DHT22;5698;47.332;11.180;2023-12-20T04:12:39;1.50;99.90
11284;DHT22;5698;47.332;11.180;2023-12-20T04:15:07;1.40;99.90
11284;DHT22;5698;47.332;11.180;2023-12-20T04:17:35;1.40;99.90
11284;DHT22;5698;47.332;11.180;2023-12-20T04:20:02;1.40;99.90
11284;DHT22;5698;47.332;11.180;2023-12-20T04:22:31;1.40;99.90
11284;DHT22;5698;47.332;11.180;2023-12-20T04:24:58;1.40;99.90
11284;DHT22;5698;47.332;11.180;2023-12-20T04:27:25;1.40;99.90
11284;DHT22;5698;47.332;11.180;2023-12-20T04:29:52;1.30;99.90
11284;DHT22;5698;47.332;11.180;2023-12-20T04:32:19;1.30;99.90
11284;DHT22;5698;47.332;11.180;2023-12-20T04:34:46;1.30;99.90
11284;DHT22;5698;47.332;11.180;2023-12-20T04:37:13;1.30;99.90
11284;DHT22;5698;47.332;11.180;2023-12-20T04:39:41;1.30;99.90
11284;DHT22;5698;47.332;11.180;2023-12-20T04:42:08;1.20;99.90
11284;DHT22;5698;47.332;11.180;2023-12-20T04:44:35;1.20;99.90
11284;DHT22;5698;47.332;11.180;2023-12-20T04:47:02;1.20;99.90
11284;DHT22;5698;47.332;11.180;2023-12-20T04:49:29;1.20;99.90
11284;DHT22;5698;47.332;11.180;2023-12-20T04:51:56;1.30;99.90
11284;DHT22;5698;47.332;11.180;2023-12-20T04:54:24;1.30;99.90
11284;DHT22;5698;47.332;11.180;2023-12-20T04:56:52;1.30;99.90
11284;DHT22;5698;47.332;11.180;2023-12-20T04:59:19;1.30;99.90
11284;DHT22;5698;47.332;11.180;2023-12-20T05:01:47;1.30;99.90
11284;DHT22;5698;47.332;11.180;2023-12-20T05:04:14;1.40;99.90
11284;DHT22;5698;47.332;11.180;2023-12-20T05:06:41;1.50;99.90
11284;DHT22;5698;47.332;11.180;2023-12-20T05:09:08;1.70;99.90
11284;DHT22;5698;47.332;11.180;2023-12-20T05:11:35;1.80;99.90
11284;DHT22;5698;47.332;11.180;2023-12-20T05:14:04;1.80;99.90
11284;DHT22;5698;47.332;11.180;2023-12-20T05:16:31;1.80;99.90
11284;DHT22;5698;47.332;11.180;2023-12-20T05:18:58;1.80;99.90
11284;DHT22;5698;47.332;11.180;2023-12-20T05:21:26;1.70;99.90
11284;DHT22;5698;47.332;11.180;2023-12-20T05:23:53;1.70;99.90
11284;DHT22;5698;47.332;11.180;2023-12-20T05:26:20;1.70;99.90
11284;DHT22;5698;47.332;11.180;2023-12-20T05:28:47;1.70;99.90
11284;DHT22;5698;47.332;11.180;2023-12-20T05:31:15;1.70;99.90
11284;DHT22;5698;47.332;11.180;2023-12-20T05:33:42;1.70;99.90
11284;DHT22;5698;47.332;11.180;2023-12-20T05:36:09;1.70;99.90
11284;DHT22;5698;47.332;11.180;2023-12-20T05:38:39;1.80;99.90
11284;DHT22;5698;47.332;11.180;2023-12-20T05:41:06;1.80;99.90
11284;DHT22;5698;47.332;11.180;2023-12-20T05:43:33;1.90;99.90
11284;DHT22;5698;47.332;11.180;2023-12-20T05:46:00;1.90;99.90
11284;DHT22;5698;47.332;11.180;2023-12-20T05:48:28;1.90;99.90
11284;DHT22;5698;47.332;11.180;2023-12-20T05:50:55;2.00;99.90
11284;DHT22;5698;47.332;11.180;2023-12-20T05:53:22;2.00;99.90
11284;DHT22;5698;47.332;11.180;2023-12-20T05:55:49;2.00;99.90
11284;DHT22;5698;47.332;11.180;2023-12-20T05:58:16;2.00;99.90
11284;DHT22;5698;47.332;11.180;2023-12-20T06:00:43;2.00;99.90
11284;DHT22;5698;47.332;11.180;2023-12-20T06:03:10;2.00;99.90
11284;DHT22;5698;47.332;11.180;2023-12-20T06:05:38;2.00;99.90
11284;DHT22;5698;47.332;11.180;2023-12-20T06:08:06;2.00;99.90
11284;DHT22;5698;47.332;11.180;2023-12-20T06:10:33;2.00;99.90
11284;DHT22;5698;47.332;11.180;2023-12-20T06:13:00;2.00;99.90
11284;DHT22;5698;47.332;11.180;2023-12-20T06:15:27;2.00;99.90
11284;DHT22;5698;47.332;11.180;2023-12-20T06:17:54;2.00;99.90
11284;DHT22;5698;47.332;11.180;2023-12-20T06:20:21;2.00;99.90
11284;DHT22;5698;47.332;11.180;2023-12-20T06:22:49;2.10;99.90
11284;DHT22;5698;47.332;11.180;2023-12-20T06:25:16;2.10;99.90
11284;DHT22;5698;47.332;11.180;2023-12-20T06:27:43;2.10;99.90
11284;DHT22;5698;47.332;11.180;2023-12-20T06:30:11;2.10;99.90
11284;DHT22;5698;47.332;11.180;2023-12-20T06:32:38;2.10;99.90
11284;DHT22;5698;47.332;11.180;2023-12-20T06:35:06;2.10;99.90
11284;DHT22;5698;47.332;11.180;2023-12-20T06:37:33;2.00;99.90
11284;DHT22;5698;47.332;11.180;2023-12-20T06:40:01;2.00;99.90
11284;DHT22;5698;47.332;11.180;2023-12-20T06:42:28;2.00;99.90
11284;DHT22;5698;47.332;11.180;2023-12-20T06:44:55;2.00;99.90
11284;DHT22;5698;47.332;11.180;2023-12-20T06:47:22;2.00;99.90
11284;DHT22;5698;47.332;11.180;2023-12-20T06:49:49;2.00;99.90
11284;DHT22;5698;47.332;11.180;2023-12-20T06:52:16;2.00;99.90
11284;DHT22;5698;47.332;11.180;2023-12-20T06:54:43;1.90;99.90
11284;DHT22;5698;47.332;11.180;2023-12-20T06:57:11;2.00;99.90
11284;DHT22;5698;47.332;11.180;2023-12-20T06:59:39;1.90;99.90
11284;DHT22;5698;47.332;11.180;2023-12-20T07:02:06;1.90;99.90
11284;DHT22;5698;47.332;11.180;2023-12-20T07:04:33;1.90;99.90
11284;DHT22;5698;47.332;11.180;2023-12-20T07:07:00;1.90;99.90
11284;DHT22;5698;47.332;11.180;2023-12-20T07:09:27;1.90;99.90
11284;DHT22;5698;47.332;11.180;2023-12-20T07:11:54;1.90;99.90
11284;DHT22;5698;47.332;11.180;2023-12-20T07:14:22;1.90;99.90
11284;DHT22;5698;47.332;11.180;2023-12-20T07:16:49;2.00;99.90
11284;DHT22;5698;47.332;11.180;2023-12-20T07:19:16;2.00;99.90
11284;DHT22;5698;47.332;11.180;2023-12-20T07:21:43;1.90;99.90
11284;DHT22;5698;47.332;11.180;2023-12-20T07:24:10;1.90;99.90
11284;DHT22;5698;47.332;11.180;2023-12-20T07:26:37;1.90;99.90
11284;DHT22;5698;47.332;11.180;2023-12-20T07:29:05;1.90;99.90
11284;DHT22;5698;47.332;11.180;2023-12-20T07:31:33;1.90;99.90
11284;DHT22;5698;47.332;11.180;2023-12-20T07:34:00;1.90;99.90
11284;DHT22;5698;47.332;11.180;2023-12-20T07:36:27;1.90;99.90
11284;DHT22;5698;47.332;11.180;2023-12-20T07:38:54;1.90;99.90
11284;DHT22;5698;47.332;11.180;2023-12-20T07:41:21;1.90;99.90
11284;DHT22;5698;47.332;11.180;2023-12-20T07:43:49;1.90;99.90
11284;DHT22;5698;47.332;11.180;2023-12-20T07:46:16;1.90;99.90
11284;DHT22;5698;47.332;11.180;2023-12-20T07:48:45;1.90;99.90
11284;DHT22;5698;47.332;11.180;2023-12-20T07:51:12;1.90;99.90
11284;DHT22;5698;47.332;11.180;2023-12-20T07:53:39;1.90;99.90
11284;DHT22;5698;47.332;11.180;2023-12-20T07:56:14;2.00;99.90
11284;DHT22;5698;47.332;11.180;2023-12-20T07:58:41;2.00;99.90
11284;DHT22;5698;47.332;11.180;2023-12-20T08:01:08;2.00;99.90
11284;DHT22;5698;47.332;11.180;2023-12-20T08:03:35;2.00;99.90
11284;DHT22;5698;47.332;11.180;2023-12-20T08:06:04;2.00;99.90
11284;DHT22;5698;47.332;11.180;2023-12-20T08:08:31;2.00;99.90
11284;DHT22;5698;47.332;11.180;2023-12-20T08:10:58;2.00;99.90
11284;DHT22;5698;47.332;11.180;2023-12-20T08:13:26;2.00;99.90
11284;DHT22;5698;47.332;11.180;2023-12-20T08:15:53;2.10;99.90
11284;DHT22;5698;47.332;11.180;2023-12-20T08:18:21;2.10;99.90
11284;DHT22;5698;47.332;11.180;2023-12-20T08:20:49;2.10;99.90
11284;DHT22;5698;47.332;11.180;2023-12-20T08:23:20;2.20;99.90
11284;DHT22;5698;47.332;11.180;2023-12-20T08:25:48;2.20;99.90
11284;DHT22;5698;47.332;11.180;2023-12-20T08:28:15;2.20;99.90
11284;DHT22;5698;47.332;11.180;2023-12-20T08:30:42;2.20;99.90
11284;DHT22;5698;47.332;11.180;2023-12-20T08:33:09;2.30;99.90
11284;DHT22;5698;47.332;11.180;2023-12-20T08:35:39;2.20;99.90
11284;DHT22;5698;47.332;11.180;2023-12-20T08:38:06;2.20;99.90
11284;DHT22;5698;47.332;11.180;2023-12-20T08:40:35;2.20;99.90
11284;DHT22;5698;47.332;11.180;2023-12-20T08:43:02;2.20;99.90
11284;DHT22;5698;47.332;11.180;2023-12-20T08:45:29;2.20;99.90
11284;DHT22;5698;47.332;11.180;2023-12-20T08:47:56;2.20;99.90
11284;DHT22;5698;47.332;11.180;2023-12-20T08:50:23;2.20;99.90
11284;DHT22;5698;47.332;11.180;2023-12-20T08:52:50;2.30;99.90
11284;DHT22;5698;47.332;11.180;2023-12-20T08:55:18;2.30;99.90
11284;DHT22;5698;47.332;11.180;2023-12-20T08:57:47;2.30;99.90
11284;DHT22;5698;47.332;11.180;2023-12-20T09:00:15;2.30;99.90
11284;DHT22;5698;47.332;11.180;2023-12-20T09:02:42;2.30;99.90
11284;DHT22;5698;47.332;11.180;2023-12-20T09:05:09;2.30;99.90
11284;DHT22;5698;47.332;11.180;2023-12-20T09:07:36;2.30;99.90
11284;DHT22;5698;47.332;11.180;2023-12-20T09:10:03;2.40;99.90
11284;DHT22;5698;47.332;11.180;2023-12-20T09:12:30;2.40;99.90
11284;DHT22;5698;47.332;11.180;2023-12-20T09:14:59;2.40;99.90
11284;DHT22;5698;47.332;11.180;2023-12-20T09:17:28;2.40;99.90
11284;DHT22;5698;47.332;11.180;2023-12-20T09:19:55;2.50;99.90
11284;DHT22;5698;47.332;11.180;2023-12-20T09:22:22;2.50;99.90
11284;DHT22;5698;47.332;11.180;2023-12-20T09:24:49;2.50;99.90
11284;DHT22;5698;47.332;11.180;2023-12-20T09:27:16;2.50;99.90
11284;DHT22;5698;47.332;11.180;2023-12-20T09:29:43;2.50;99.90
11284;DHT22;5698;47.332;11.180;2023-12-20T09:32:11;2.50;99.90
11284;DHT22;5698;47.332;11.180;2023-12-20T09:34:38;2.50;99.90
11284;DHT22;5698;47.332;11.180;2023-12-20T09:37:05;2.50;99.90
11284;DHT22;5698;47.332;11.180;2023-12-20T09:39:33;2.50;99.90
11284;DHT22;5698;47.332;11.180;2023-12-20T09:42:01;2.60;99.90
11284;DHT22;5698;47.332;11.180;2023-12-20T09:44:28;2.60;99.90
11284;DHT22;5698;47.332;11.180;2023-12-20T09:46:56;2.60;99.90
11284;DHT22;5698;47.332;11.180;2023-12-20T09:49:25;2.60;99.90
11284;DHT22;5698;47.332;11.180;2023-12-20T09:51:54;2.60;99.90
11284;DHT22;5698;47.332;11.180;2023-12-20T09:54:22;2.60;99.90
11284;DHT22;5698;47.332;11.180;2023-12-20T09:56:49;2.70;99.90
11284;DHT22;5698;47.332;11.180;2023-12-20T09:59:16;2.70;99.90
11284;DHT22;5698;47.332;11.180;2023-12-20T10:01:44;2.70;99.90
11284;DHT22;5698;47.332;11.180;2023-12-20T10:04:12;2.70;99.90
11284;DHT22;5698;47.332;11.180;2023-12-20T10:06:41;2.80;99.90
11284;DHT22;5698;47.332;11.180;2023-12-20T10:09:09;2.80;99.90
11284;DHT22;5698;47.332;11.180;2023-12-20T10:11:36;2.80;99.90
11284;DHT22;5698;47.332;11.180;2023-12-20T10:14:04;2.90;99.90
11284;DHT22;5698;47.332;11.180;2023-12-20T10:16:32;2.90;99.90
11284;DHT22;5698;47.332;11.180;2023-12-20T10:19:00;3.00;99.90
11284;DHT22;5698;47.332;11.180;2023-12-20T10:21:28;3.00;99.90
11284;DHT22;5698;47.332;11.180;2023-12-20T10:23:57;3.10;99.90
11284;DHT22;5698;47.332;11.180;2023-12-20T10:26:25;3.10;99.90
11284;DHT22;5698;47.332;11.180;2023-12-20T10:28:53;3.20;99.90
11284;DHT22;5698;47.332;11.180;2023-12-20T10:31:28;3.20;99.90
11284;DHT22;5698;47.332;11.180;2023-12-20T10:33:56;3.30;99.90
11284;DHT22;5698;47.332;11.180;2023-12-20T10:36:24;3.30;99.90
11284;DHT22;5698;47.332;11.180;2023-12-20T10:38:53;3.40;99.90
11284;DHT22;5698;47.332;11.180;2023-12-20T10:41:25;3.40;99.90
11284;DHT22;5698;47.332;11.180;2023-12-20T10:43:55;3.40;99.90
11284;DHT22;5698;47.332;11.180;2023-12-20T10:46:22;3.40;99.90
11284;DHT22;5698;47.332;11.180;2023-12-20T10:48:53;3.40;99.90
11284;DHT22;5698;47.332;11.180;2023-12-20T10:51:20;3.50;99.90
11284;DHT22;5698;47.332;11.180;2023-12-20T10:53:48;3.50;99.90
11284;DHT22;5698;47.332;11.180;2023-12-20T10:56:17;3.50;99.90
11284;DHT22;5698;47.332;11.180;2023-12-20T10:58:48;3.60;99.90
11284;DHT22;5698;47.332;11.180;2023-12-20T11:01:15;3.60;99.90
11284;DHT22;5698;47.332;11.180;2023-12-20T11:03:47;3.70;99.90
11284;DHT22;5698;47.332;11.180;2023-12-20T11:06:26;3.80;99.90
11284;DHT22;5698;47.332;11.180;2023-12-20T11:08:59;3.80;99.90
11284;DHT22;5698;47.332;11.180;2023-12-20T11:11:39;3.80;99.90
11284;DHT22;5698;47.332;11.180;2023-12-20T11:14:15;3.80;99.90
11284;DHT22;5698;47.332;11.180;2023-12-20T11:16:43;3.90;99.90
11284;DHT22;5698;47.332;11.180;2023-12-20T11:19:11;3.90;99.90
11284;DHT22;5698;47.332;11.180;2023-12-20T11:21:40;3.90;99.90
11284;DHT22;5698;47.332;11.180;2023-12-20T11:24:07;3.90;99.90
11284;DHT22;5698;47.332;11.180;2023-12-20T11:26:34;3.90;99.90
11284;DHT22;5698;47.332;11.180;2023-12-20T11:29:31;3.90;99.90
11284;DHT22;5698;47.332;11.180;2023-12-20T11:31:59;3.80;99.90
11284;DHT22;5698;47.332;11.180;2023-12-20T11:34:27;3.80;99.90
11284;DHT22;5698;47.332;11.180;2023-12-20T11:36:58;3.80;99.90
11284;DHT22;5698;47.332;11.180;2023-12-20T11:39:27;3.90;99.90
11284;DHT22;5698;47.332;11.180;2023-12-20T11:41:55;3.90;99.90
11284;DHT22;5698;47.332;11.180;2023-12-20T11:44:25;4.00;99.90
11284;DHT22;5698;47.332;11.180;2023-12-20T11:46:55;4.10;99.90
11284;DHT22;5698;47.332;11.180;2023-12-20T11:49:25;4.20;99.90
11284;DHT22;5698;47.332;11.180;2023-12-20T11:51:52;4.30;99.90
11284;DHT22;5698;47.332;11.180;2023-12-20T11:54:19;4.30;99.90
11284;DHT22;5698;47.332;11.180;2023-12-20T11:56:46;4.40;99.90
11284;DHT22;5698;47.332;11.180;2023-12-20T11:59:14;4.40;99.90
11284;DHT22;5698;47.332;11.180;2023-12-20T12:01:48;4.50;99.90
11284;DHT22;5698;47.332;11.180;2023-12-20T12:04:17;4.50;99.90
11284;DHT22;5698;47.332;11.180;2023-12-20T12:06:44;4.50;99.90
11284;DHT22;5698;47.332;11.180;2023-12-20T12:09:12;4.50;99.90
11284;DHT22;5698;47.332;11.180;2023-12-20T12:11:39;4.50;99.90
11284;DHT22;5698;47.332;11.180;2023-12-20T12:14:07;4.40;99.90
11284;DHT22;5698;47.332;11.180;2023-12-20T12:16:34;4.30;99.90
11284;DHT22;5698;47.332;11.180;2023-12-20T12:19:01;4.20;99.90
11284;DHT22;5698;47.332;11.180;2023-12-20T12:21:31;4.20;99.90
11284;DHT22;5698;47.332;11.180;2023-12-20T12:24:07;4.10;99.90
11284;DHT22;5698;47.332;11.180;2023-12-20T12:26:34;4.10;99.90
11284;DHT22;5698;47.332;11.180;2023-12-20T12:29:01;4.10;99.90
11284;DHT22;5698;47.332;11.180;2023-12-20T12:31:28;4.10;99.90
11284;DHT22;5698;47.332;11.180;2023-12-20T12:33:56;4.10;99.90
11284;DHT22;5698;47.332;11.180;2023-12-20T12:36:23;4.10;99.90
11284;DHT22;5698;47.332;11.180;2023-12-20T12:38:50;4.10;99.90
11284;DHT22;5698;47.332;11.180;2023-12-20T12:41:17;4.00;99.90
11284;DHT22;5698;47.332;11.180;2023-12-20T12:43:44;3.90;99.90
11284;DHT22;5698;47.332;11.180;2023-12-20T12:46:11;3.90;99.90
11284;DHT22;5698;47.332;11.180;2023-12-20T12:48:38;3.90;99.90
11284;DHT22;5698;47.332;11.180;2023-12-20T12:51:05;3.90;99.90
11284;DHT22;5698;47.332;11.180;2023-12-20T12:53:38;4.00;99.90
11284;DHT22;5698;47.332;11.180;2023-12-20T12:56:06;3.90;99.90
11284;DHT22;5698;47.332;11.180;2023-12-20T12:58:33;3.90;99.90
11284;DHT22;5698;47.332;11.180;2023-12-20T13:01:00;3.90;99.90
11284;DHT22;5698;47.332;11.180;2023-12-20T13:03:29;3.90;99.90
11284;DHT22;5698;47.332;11.180;2023-12-20T13:05:56;3.90;99.90
11284;DHT22;5698;47.332;11.180;2023-12-20T13:08:23;3.90;99.90
11284;DHT22;5698;47.332;11.180;2023-12-20T13:10:50;3.80;99.90
11284;DHT22;5698;47.332;11.180;2023-12-20T13:13:18;3.80;99.90
11284;DHT22;5698;47.332;11.180;2023-12-20T13:15:45;3.80;99.90
11284;DHT22;5698;47.332;11.180;2023-12-20T13:18:16;3.70;99.90
11284;DHT22;5698;47.332;11.180;2023-12-20T13:20:44;3.70;99.90
11284;DHT22;5698;47.332;11.180;2023-12-20T13:23:13;3.70;99.90
11284;DHT22;5698;47.332;11.180;2023-12-20T13:25:41;3.70;99.90
11284;DHT22;5698;47.332;11.180;2023-12-20T13:28:08;3.60;99.90
11284;DHT22;5698;47.332;11.180;2023-12-20T13:30:36;3.60;99.90
11284;DHT22;5698;47.332;11.180;2023-12-20T13:33:04;3.60;99.90
11284;DHT22;5698;47.332;11.180;2023-12-20T13:35:31;3.50;99.90
11284;DHT22;5698;47.332;11.180;2023-12-20T13:38:00;3.50;99.90
11284;DHT22;5698;47.332;11.180;2023-12-20T13:40:27;3.50;99.90
11284;DHT22;5698;47.332;11.180;2023-12-20T13:42:55;3.40;99.90
11284;DHT22;5698;47.332;11.180;2023-12-20T13:45:22;3.50;99.90
11284;DHT22;5698;47.332;11.180;2023-12-20T13:47:52;3.40;99.90
11284;DHT22;5698;47.332;11.180;2023-12-20T13:50:19;3.40;99.90
11284;DHT22;5698;47.332;11.180;2023-12-20T13:52:47;3.40;99.90
11284;DHT22;5698;47.332;11.180;2023-12-20T13:55:14;3.30;99.90
11284;DHT22;5698;47.332;11.180;2023-12-20T13:57:42;3.30;99.90
11284;DHT22;5698;47.332;11.180;2023-12-20T14:00:10;3.30;99.90
11284;DHT22;5698;47.332;11.180;2023-12-20T14:02:41;3.30;99.90
11284;DHT22;5698;47.332;11.180;2023-12-20T14:05:09;3.30;99.90
11284;DHT22;5698;47.332;11.180;2023-12-20T14:07:36;3.20;99.90
11284;DHT22;5698;47.332;11.180;2023-12-20T14:10:04;3.20;99.90
11284;DHT22;5698;47.332;11.180;2023-12-20T14:12:32;3.10;99.90
11284;DHT22;5698;47.332;11.180;2023-12-20T14:15:02;3.10;99.90
11284;DHT22;5698;47.332;11.180;2023-12-20T14:17:29;3.10;99.90
11284;DHT22;5698;47.332;11.180;2023-12-20T14:19:57;3.20;99.90
11284;DHT22;5698;47.332;11.180;2023-12-20T14:22:25;3.10;99.90
11284;DHT22;5698;47.332;11.180;2023-12-20T14:24:54;3.10;99.90
11284;DHT22;5698;47.332;11.180;2023-12-20T14:27:22;3.00;99.90
11284;DHT22;5698;47.332;11.180;2023-12-20T14:29:50;3.00;99.90
11284;DHT22;5698;47.332;11.180;2023-12-20T14:32:17;2.90;99.90
11284;DHT22;5698;47.332;11.180;2023-12-20T14:34:44;2.90;99.90
11284;DHT22;5698;47.332;11.180;2023-12-20T14:37:11;2.90;99.90
11284;DHT22;5698;47.332;11.180;2023-12-20T14:39:39;2.80;99.90
11284;DHT22;5698;47.332;11.180;2023-12-20T14:42:07;2.80;99.90
11284;DHT22;5698;47.332;11.180;2023-12-20T14:44:36;2.80;99.90
11284;DHT22;5698;47.332;11.180;2023-12-20T14:47:04;2.80;99.90
11284;DHT22;5698;47.332;11.180;2023-12-20T14:49:31;2.70;99.90
11284;DHT22;5698;47.332;11.180;2023-12-20T14:51:58;2.70;99.90
11284;DHT22;5698;47.332;11.180;2023-12-20T14:54:25;2.70;99.90
11284;DHT22;5698;47.332;11.180;2023-12-20T14:56:53;2.70;99.90
11284;DHT22;5698;47.332;11.180;2023-12-20T14:59:21;2.70;99.90
11284;DHT22;5698;47.332;11.180;2023-12-20T15:01:48;2.60;99.90
11284;DHT22;5698;47.332;11.180;2023-12-20T15:04:16;2.60;99.90
11284;DHT22;5698;47.332;11.180;2023-12-20T15:06:43;2.60;99.90
11284;DHT22;5698;47.332;11.180;2023-12-20T15:09:10;2.50;99.90
11284;DHT22;5698;47.332;11.180;2023-12-20T15:11:37;2.50;99.90
11284;DHT22;5698;47.332;11.180;2023-12-20T15:14:06;2.50;99.90
11284;DHT22;5698;47.332;11.180;2023-12-20T15:16:33;2.40;99.90
11284;DHT22;5698;47.332;11.180;2023-12-20T15:19:01;2.40;99.90
11284;DHT22;5698;47.332;11.180;2023-12-20T15:21:29;2.40;99.90
11284;DHT22;5698;47.332;11.180;2023-12-20T15:23:58;2.40;99.90
11284;DHT22;5698;47.332;11.180;2023-12-20T15:26:32;2.30;99.90
11284;DHT22;5698;47.332;11.180;2023-12-20T15:28:59;2.30;99.90
11284;DHT22;5698;47.332;11.180;2023-12-20T15:31:28;2.30;99.90
11284;DHT22;5698;47.332;11.180;2023-12-20T15:33:55;2.30;99.90
11284;DHT22;5698;47.332;11.180;2023-12-20T15:36:22;2.20;99.90
11284;DHT22;5698;47.332;11.180;2023-12-20T15:38:49;2.20;99.90
11284;DHT22;5698;47.332;11.180;2023-12-20T15:41:18;2.20;99.90
11284;DHT22;5698;47.332;11.180;2023-12-20T15:43:45;2.20;99.90
11284;DHT22;5698;47.332;11.180;2023-12-20T15:46:13;2.10;99.90
11284;DHT22;5698;47.332;11.180;2023-12-20T15:48:41;2.10;99.90